sensor_id;sensor_type;location;lat;lon;timestamp;P1;durP1;ratioP1;P2;durP2;ratioP2
75220;SDS011;63802;53.232;6.570;2022-10-15T00:00:29;87.72;;;25.98;;
75220;SDS011;63802;53.232;6.570;2022-10-15T00:02:54;82.25;;;26.67;;
75220;SDS011;63802;53.232;6.570;2022-10-15T00:05:20;71.43;;;26.10;;
75220;SDS011;63802;53.232;6.570;2022-10-15T00:07:46;80.72;;;26.20;;
75220;SDS011;63802;53.232;6.570;2022-10-15T00:10:12;83.95;;;26.92;;
75220;SDS011;63802;53.232;6.570;2022-10-15T00:12:38;88.05;;;28.55;;
75220;SDS011;63802;53.232;6.570;2022-10-15T00:15:04;99.03;;;30.52;;
75220;SDS011;63802;53.232;6.570;2022-10-15T00:17:30;81.30;;;27.02;;
75220;SDS011;63802;53.232;6.570;2022-10-15T00:19:57;86.97;;;29.40;;
75220;SDS011;63802;53.232;6.570;2022-10-15T00:22:22;90.50;;;27.80;;
75220;SDS011;63802;53.232;6.570;2022-10-15T00:24:48;76.72;;;23.85;;
75220;SDS011;63802;53.232;6.570;2022-10-15T00:27:13;89.47;;;28.40;;
75220;SDS011;63802;53.232;6.570;2022-10-15T00:29:39;88.07;;;30.15;;
75220;SDS011;63802;53.232;6.570;2022-10-15T00:32:05;74.30;;;27.17;;
75220;SDS011;63802;53.232;6.570;2022-10-15T00:34:30;84.43;;;28.67;;
75220;SDS011;63802;53.232;6.570;2022-10-15T00:36:56;82.13;;;29.00;;
75220;SDS011;63802;53.232;6.570;2022-10-15T00:39:22;74.00;;;27.40;;
75220;SDS011;63802;53.232;6.570;2022-10-15T00:41:47;81.53;;;25.95;;
75220;SDS011;63802;53.232;6.570;2022-10-15T00:47:01;80.82;;;27.23;;
75220;SDS011;63802;53.232;6.570;2022-10-15T00:49:48;67.30;;;24.67;;
75220;SDS011;63802;53.232;6.570;2022-10-15T00:52:40;78.57;;;27.55;;
75220;SDS011;63802;53.232;6.570;2022-10-15T00:57:41;86.55;;;29.20;;
75220;SDS011;63802;53.232;6.570;2022-10-15T01:00:10;84.88;;;28.65;;
75220;SDS011;63802;53.232;6.570;2022-10-15T01:02:39;93.55;;;31.08;;
75220;SDS011;63802;53.232;6.570;2022-10-15T01:05:05;82.07;;;29.70;;
75220;SDS011;63802;53.232;6.570;2022-10-15T01:07:32;89.97;;;31.17;;
75220;SDS011;63802;53.232;6.570;2022-10-15T01:09:57;85.13;;;28.88;;
75220;SDS011;63802;53.232;6.570;2022-10-15T01:15:28;86.07;;;29.65;;
75220;SDS011;63802;53.232;6.570;2022-10-15T01:17:58;88.93;;;30.58;;
75220;SDS011;63802;53.232;6.570;2022-10-15T01:25:49;79.32;;;29.20;;
75220;SDS011;63802;53.232;6.570;2022-10-15T01:28:22;71.15;;;27.05;;
75220;SDS011;63802;53.232;6.570;2022-10-15T01:31:02;68.60;;;28.20;;
75220;SDS011;63802;53.232;6.570;2022-10-15T01:33:41;75.45;;;26.45;;
75220;SDS011;63802;53.232;6.570;2022-10-15T01:41:40;76.78;;;27.70;;
75220;SDS011;63802;53.232;6.570;2022-10-15T01:44:16;81.22;;;27.30;;
75220;SDS011;63802;53.232;6.570;2022-10-15T01:46:53;80.72;;;28.50;;
75220;SDS011;63802;53.232;6.570;2022-10-15T01:49:23;68.57;;;26.30;;
75220;SDS011;63802;53.232;6.570;2022-10-15T01:51:54;69.75;;;27.48;;
75220;SDS011;63802;53.232;6.570;2022-10-15T01:54:23;79.15;;;26.92;;
75220;SDS011;63802;53.232;6.570;2022-10-15T01:56:51;68.90;;;27.08;;
75220;SDS011;63802;53.232;6.570;2022-10-15T01:59:23;79.78;;;26.77;;
75220;SDS011;63802;53.232;6.570;2022-10-15T02:01:52;69.53;;;26.00;;
75220;SDS011;63802;53.232;6.570;2022-10-15T02:04:19;75.63;;;26.42;;
75220;SDS011;63802;53.232;6.570;2022-10-15T02:06:48;64.50;;;24.60;;
75220;SDS011;63802;53.232;6.570;2022-10-15T02:11:53;68.25;;;24.75;;
75220;SDS011;63802;53.232;6.570;2022-10-15T02:25:56;68.80;;;25.00;;
75220;SDS011;63802;53.232;6.570;2022-10-15T02:28:23;73.75;;;26.88;;
75220;SDS011;63802;53.232;6.570;2022-10-15T02:30:51;61.75;;;24.08;;
75220;SDS011;63802;53.232;6.570;2022-10-15T02:33:17;61.22;;;23.42;;
75220;SDS011;63802;53.232;6.570;2022-10-15T02:35:44;61.95;;;24.17;;
75220;SDS011;63802;53.232;6.570;2022-10-15T02:38:13;60.58;;;23.92;;
75220;SDS011;63802;53.232;6.570;2022-10-15T02:40:43;65.03;;;23.88;;
75220;SDS011;63802;53.232;6.570;2022-10-15T02:43:11;61.83;;;24.25;;
75220;SDS011;63802;53.232;6.570;2022-10-15T02:45:39;75.28;;;26.17;;
75220;SDS011;63802;53.232;6.570;2022-10-15T02:48:06;69.70;;;25.35;;
75220;SDS011;63802;53.232;6.570;2022-10-15T02:50:32;65.82;;;26.35;;
75220;SDS011;63802;53.232;6.570;2022-10-15T02:52:57;64.95;;;24.45;;
75220;SDS011;63802;53.232;6.570;2022-10-15T02:55:23;66.82;;;26.30;;
75220;SDS011;63802;53.232;6.570;2022-10-15T02:57:48;67.60;;;25.75;;
75220;SDS011;63802;53.232;6.570;2022-10-15T03:00:14;62.45;;;24.85;;
75220;SDS011;63802;53.232;6.570;2022-10-15T03:02:39;63.00;;;23.15;;
75220;SDS011;63802;53.232;6.570;2022-10-15T03:05:05;65.53;;;24.88;;
75220;SDS011;63802;53.232;6.570;2022-10-15T03:07:30;63.38;;;22.23;;
75220;SDS011;63802;53.232;6.570;2022-10-15T03:09:56;64.68;;;24.35;;
75220;SDS011;63802;53.232;6.570;2022-10-15T03:12:22;68.15;;;25.52;;
75220;SDS011;63802;53.232;6.570;2022-10-15T03:14:49;70.10;;;26.08;;
75220;SDS011;63802;53.232;6.570;2022-10-15T03:17:15;66.35;;;27.55;;
75220;SDS011;63802;53.232;6.570;2022-10-15T03:19:40;75.03;;;26.98;;
75220;SDS011;63802;53.232;6.570;2022-10-15T03:22:06;67.30;;;26.75;;
75220;SDS011;63802;53.232;6.570;2022-10-15T03:24:32;67.82;;;26.52;;
75220;SDS011;63802;53.232;6.570;2022-10-15T03:26:57;72.22;;;26.67;;
75220;SDS011;63802;53.232;6.570;2022-10-15T03:29:23;64.18;;;25.02;;
75220;SDS011;63802;53.232;6.570;2022-10-15T03:31:50;58.10;;;23.02;;
75220;SDS011;63802;53.232;6.570;2022-10-15T03:34:17;67.25;;;24.85;;
75220;SDS011;63802;53.232;6.570;2022-10-15T03:36:43;72.95;;;24.92;;
75220;SDS011;63802;53.232;6.570;2022-10-15T03:39:09;62.88;;;23.67;;
75220;SDS011;63802;53.232;6.570;2022-10-15T03:41:36;67.57;;;26.40;;
75220;SDS011;63802;53.232;6.570;2022-10-15T03:44:05;65.32;;;24.80;;
75220;SDS011;63802;53.232;6.570;2022-10-15T03:46:31;59.55;;;24.48;;
75220;SDS011;63802;53.232;6.570;2022-10-15T03:48:57;65.15;;;25.25;;
75220;SDS011;63802;53.232;6.570;2022-10-15T03:51:23;66.38;;;26.30;;
75220;SDS011;63802;53.232;6.570;2022-10-15T03:53:48;67.93;;;25.10;;
75220;SDS011;63802;53.232;6.570;2022-10-15T03:56:14;61.72;;;24.92;;
75220;SDS011;63802;53.232;6.570;2022-10-15T03:58:40;61.90;;;24.38;;
75220;SDS011;63802;53.232;6.570;2022-10-15T04:01:09;61.75;;;23.27;;
75220;SDS011;63802;53.232;6.570;2022-10-15T04:03:36;65.05;;;23.65;;
75220;SDS011;63802;53.232;6.570;2022-10-15T04:06:01;67.65;;;24.95;;
75220;SDS011;63802;53.232;6.570;2022-10-15T04:08:27;59.30;;;23.52;;
75220;SDS011;63802;53.232;6.570;2022-10-15T04:10:52;68.32;;;25.85;;
75220;SDS011;63802;53.232;6.570;2022-10-15T04:13:21;65.68;;;25.35;;
75220;SDS011;63802;53.232;6.570;2022-10-15T04:15:46;62.15;;;23.73;;
75220;SDS011;63802;53.232;6.570;2022-10-15T04:18:12;58.03;;;22.13;;
75220;SDS011;63802;53.232;6.570;2022-10-15T04:20:38;72.03;;;25.35;;
75220;SDS011;63802;53.232;6.570;2022-10-15T04:23:03;69.47;;;26.40;;
75220;SDS011;63802;53.232;6.570;2022-10-15T04:25:29;70.78;;;25.88;;
75220;SDS011;63802;53.232;6.570;2022-10-15T04:27:54;69.43;;;25.30;;
75220;SDS011;63802;53.232;6.570;2022-10-15T04:30:20;73.68;;;25.48;;
75220;SDS011;63802;53.232;6.570;2022-10-15T04:32:45;73.60;;;26.40;;
75220;SDS011;63802;53.232;6.570;2022-10-15T04:35:11;73.22;;;25.60;;
75220;SDS011;63802;53.232;6.570;2022-10-15T04:37:36;74.00;;;25.65;;
75220;SDS011;63802;53.232;6.570;2022-10-15T04:40:02;78.55;;;26.00;;
75220;SDS011;63802;53.232;6.570;2022-10-15T04:42:29;73.38;;;25.15;;
75220;SDS011;63802;53.232;6.570;2022-10-15T04:44:55;85.03;;;25.70;;
75220;SDS011;63802;53.232;6.570;2022-10-15T04:47:21;76.63;;;26.50;;
75220;SDS011;63802;53.232;6.570;2022-10-15T04:49:46;73.80;;;25.65;;
75220;SDS011;63802;53.232;6.570;2022-10-15T04:52:11;78.53;;;27.80;;
75220;SDS011;63802;53.232;6.570;2022-10-15T04:54:37;92.45;;;27.45;;
75220;SDS011;63802;53.232;6.570;2022-10-15T04:57:03;78.32;;;26.35;;
75220;SDS011;63802;53.232;6.570;2022-10-15T04:59:29;82.07;;;27.75;;
75220;SDS011;63802;53.232;6.570;2022-10-15T05:01:55;73.95;;;26.70;;
75220;SDS011;63802;53.232;6.570;2022-10-15T05:04:20;67.35;;;22.52;;
75220;SDS011;63802;53.232;6.570;2022-10-15T05:06:45;73.75;;;26.35;;
75220;SDS011;63802;53.232;6.570;2022-10-15T05:09:11;81.90;;;27.13;;
75220;SDS011;63802;53.232;6.570;2022-10-15T05:11:38;75.32;;;26.90;;
75220;SDS011;63802;53.232;6.570;2022-10-15T05:14:03;69.47;;;26.00;;
75220;SDS011;63802;53.232;6.570;2022-10-15T05:16:30;70.65;;;26.08;;
75220;SDS011;63802;53.232;6.570;2022-10-15T05:18:58;71.30;;;26.08;;
75220;SDS011;63802;53.232;6.570;2022-10-15T05:21:28;72.32;;;26.55;;
75220;SDS011;63802;53.232;6.570;2022-10-15T05:23:55;77.43;;;27.25;;
75220;SDS011;63802;53.232;6.570;2022-10-15T05:26:22;71.55;;;27.17;;
75220;SDS011;63802;53.232;6.570;2022-10-15T05:28:49;75.40;;;27.98;;
75220;SDS011;63802;53.232;6.570;2022-10-15T05:31:17;72.03;;;27.45;;
75220;SDS011;63802;53.232;6.570;2022-10-15T05:33:47;67.85;;;25.13;;
75220;SDS011;63802;53.232;6.570;2022-10-15T05:36:21;73.35;;;26.98;;
75220;SDS011;63802;53.232;6.570;2022-10-15T05:38:57;72.28;;;28.02;;
75220;SDS011;63802;53.232;6.570;2022-10-15T05:41:27;73.18;;;27.42;;
75220;SDS011;63802;53.232;6.570;2022-10-15T05:43:54;81.43;;;28.65;;
75220;SDS011;63802;53.232;6.570;2022-10-15T05:46:21;76.80;;;28.13;;
75220;SDS011;63802;53.232;6.570;2022-10-15T05:48:51;71.53;;;25.90;;
75220;SDS011;63802;53.232;6.570;2022-10-15T05:51:18;88.32;;;30.38;;
75220;SDS011;63802;53.232;6.570;2022-10-15T05:53:44;92.90;;;29.08;;
75220;SDS011;63802;53.232;6.570;2022-10-15T05:56:12;84.97;;;29.73;;
75220;SDS011;63802;53.232;6.570;2022-10-15T05:58:41;74.53;;;27.42;;
75220;SDS011;63802;53.232;6.570;2022-10-15T06:01:10;89.35;;;29.50;;
75220;SDS011;63802;53.232;6.570;2022-10-15T06:03:38;80.03;;;29.13;;
75220;SDS011;63802;53.232;6.570;2022-10-15T06:06:11;86.65;;;29.73;;
75220;SDS011;63802;53.232;6.570;2022-10-15T06:08:38;77.55;;;27.70;;
75220;SDS011;63802;53.232;6.570;2022-10-15T06:11:04;95.47;;;31.27;;
75220;SDS011;63802;53.232;6.570;2022-10-15T06:13:29;95.85;;;30.73;;
75220;SDS011;63802;53.232;6.570;2022-10-15T06:15:55;92.80;;;31.90;;
75220;SDS011;63802;53.232;6.570;2022-10-15T06:18:20;96.47;;;31.70;;
75220;SDS011;63802;53.232;6.570;2022-10-15T06:20:50;86.00;;;30.23;;
75220;SDS011;63802;53.232;6.570;2022-10-15T06:23:17;87.10;;;30.00;;
75220;SDS011;63802;53.232;6.570;2022-10-15T06:25:43;87.50;;;30.00;;
75220;SDS011;63802;53.232;6.570;2022-10-15T06:28:09;84.90;;;32.38;;
75220;SDS011;63802;53.232;6.570;2022-10-15T06:30:35;86.55;;;31.17;;
75220;SDS011;63802;53.232;6.570;2022-10-15T06:33:01;87.13;;;31.35;;
75220;SDS011;63802;53.232;6.570;2022-10-15T06:35:27;85.68;;;30.42;;
75220;SDS011;63802;53.232;6.570;2022-10-15T06:37:59;92.78;;;30.02;;
75220;SDS011;63802;53.232;6.570;2022-10-15T06:40:25;85.78;;;29.50;;
75220;SDS011;63802;53.232;6.570;2022-10-15T06:42:50;86.00;;;31.58;;
75220;SDS011;63802;53.232;6.570;2022-10-15T06:45:16;88.07;;;27.48;;
75220;SDS011;63802;53.232;6.570;2022-10-15T06:47:41;88.78;;;30.58;;
75220;SDS011;63802;53.232;6.570;2022-10-15T06:50:07;87.75;;;31.95;;
75220;SDS011;63802;53.232;6.570;2022-10-15T06:52:33;80.30;;;29.70;;
75220;SDS011;63802;53.232;6.570;2022-10-15T06:54:59;82.75;;;29.42;;
75220;SDS011;63802;53.232;6.570;2022-10-15T06:57:28;81.35;;;30.25;;
75220;SDS011;63802;53.232;6.570;2022-10-15T06:59:54;83.88;;;29.27;;
75220;SDS011;63802;53.232;6.570;2022-10-15T07:02:22;85.05;;;29.58;;
75220;SDS011;63802;53.232;6.570;2022-10-15T07:04:48;90.38;;;30.98;;
75220;SDS011;63802;53.232;6.570;2022-10-15T07:07:14;87.32;;;30.42;;
75220;SDS011;63802;53.232;6.570;2022-10-15T07:09:39;81.30;;;30.83;;
75220;SDS011;63802;53.232;6.570;2022-10-15T07:12:05;85.00;;;30.67;;
75220;SDS011;63802;53.232;6.570;2022-10-15T07:14:30;89.25;;;31.20;;
75220;SDS011;63802;53.232;6.570;2022-10-15T07:16:56;96.85;;;31.23;;
75220;SDS011;63802;53.232;6.570;2022-10-15T07:19:23;80.07;;;28.60;;
75220;SDS011;63802;53.232;6.570;2022-10-15T07:21:48;79.53;;;29.50;;
75220;SDS011;63802;53.232;6.570;2022-10-15T07:24:14;98.22;;;32.90;;
75220;SDS011;63802;53.232;6.570;2022-10-15T07:26:39;93.07;;;31.23;;
75220;SDS011;63802;53.232;6.570;2022-10-15T07:29:04;96.35;;;31.42;;
75220;SDS011;63802;53.232;6.570;2022-10-15T07:31:30;96.15;;;31.05;;
75220;SDS011;63802;53.232;6.570;2022-10-15T07:33:56;89.43;;;30.33;;
75220;SDS011;63802;53.232;6.570;2022-10-15T07:36:21;93.68;;;30.45;;
75220;SDS011;63802;53.232;6.570;2022-10-15T07:38:47;88.35;;;30.88;;
75220;SDS011;63802;53.232;6.570;2022-10-15T07:41:12;79.97;;;28.00;;
75220;SDS011;63802;53.232;6.570;2022-10-15T07:43:38;95.85;;;32.78;;
75220;SDS011;63802;53.232;6.570;2022-10-15T07:46:04;90.43;;;31.13;;
75220;SDS011;63802;53.232;6.570;2022-10-15T07:48:29;84.95;;;31.00;;
75220;SDS011;63802;53.232;6.570;2022-10-15T07:50:56;84.50;;;32.55;;
75220;SDS011;63802;53.232;6.570;2022-10-15T07:53:25;83.50;;;30.85;;
75220;SDS011;63802;53.232;6.570;2022-10-15T07:55:51;90.28;;;32.30;;
75220;SDS011;63802;53.232;6.570;2022-10-15T07:58:17;86.90;;;31.27;;
75220;SDS011;63802;53.232;6.570;2022-10-15T08:00:43;91.65;;;31.85;;
75220;SDS011;63802;53.232;6.570;2022-10-15T08:03:08;78.65;;;31.25;;
75220;SDS011;63802;53.232;6.570;2022-10-15T08:05:34;78.65;;;29.70;;
75220;SDS011;63802;53.232;6.570;2022-10-15T08:07:59;70.70;;;29.08;;
75220;SDS011;63802;53.232;6.570;2022-10-15T08:10:25;77.10;;;28.60;;
75220;SDS011;63802;53.232;6.570;2022-10-15T08:12:51;75.18;;;29.05;;
75220;SDS011;63802;53.232;6.570;2022-10-15T08:15:17;78.00;;;30.02;;
75220;SDS011;63802;53.232;6.570;2022-10-15T08:17:43;78.88;;;28.33;;
75220;SDS011;63802;53.232;6.570;2022-10-15T08:20:09;74.70;;;28.58;;
75220;SDS011;63802;53.232;6.570;2022-10-15T08:22:34;72.00;;;29.05;;
75220;SDS011;63802;53.232;6.570;2022-10-15T08:25:00;71.72;;;28.30;;
75220;SDS011;63802;53.232;6.570;2022-10-15T08:27:25;71.50;;;28.25;;
75220;SDS011;63802;53.232;6.570;2022-10-15T08:29:51;62.85;;;25.83;;
75220;SDS011;63802;53.232;6.570;2022-10-15T08:32:16;67.15;;;27.00;;
75220;SDS011;63802;53.232;6.570;2022-10-15T08:34:41;70.32;;;26.98;;
75220;SDS011;63802;53.232;6.570;2022-10-15T08:37:07;62.38;;;26.33;;
75220;SDS011;63802;53.232;6.570;2022-10-15T08:39:33;56.75;;;23.08;;
75220;SDS011;63802;53.232;6.570;2022-10-15T08:42:00;62.83;;;25.83;;
75220;SDS011;63802;53.232;6.570;2022-10-15T08:44:30;57.92;;;25.17;;
75220;SDS011;63802;53.232;6.570;2022-10-15T08:47:06;61.30;;;25.08;;
75220;SDS011;63802;53.232;6.570;2022-10-15T08:55:06;53.05;;;23.90;;
75220;SDS011;63802;53.232;6.570;2022-10-15T08:57:40;54.53;;;23.85;;
75220;SDS011;63802;53.232;6.570;2022-10-15T09:00:11;46.63;;;20.38;;
75220;SDS011;63802;53.232;6.570;2022-10-15T09:02:52;55.13;;;23.45;;
75220;SDS011;63802;53.232;6.570;2022-10-15T09:08:13;59.08;;;24.00;;
75220;SDS011;63802;53.232;6.570;2022-10-15T09:10:59;60.10;;;24.42;;
75220;SDS011;63802;53.232;6.570;2022-10-15T09:13:32;65.03;;;26.27;;
75220;SDS011;63802;53.232;6.570;2022-10-15T09:18:38;54.47;;;22.95;;
75220;SDS011;63802;53.232;6.570;2022-10-15T09:21:07;59.45;;;25.13;;
75220;SDS011;63802;53.232;6.570;2022-10-15T09:23:35;55.13;;;24.23;;
75220;SDS011;63802;53.232;6.570;2022-10-15T09:28:54;61.88;;;25.10;;
75220;SDS011;63802;53.232;6.570;2022-10-15T09:31:33;55.13;;;23.55;;
75220;SDS011;63802;53.232;6.570;2022-10-15T09:34:09;46.70;;;20.73;;
75220;SDS011;63802;53.232;6.570;2022-10-15T09:36:50;47.05;;;20.83;;
75220;SDS011;63802;53.232;6.570;2022-10-15T09:39:31;48.47;;;19.73;;
75220;SDS011;63802;53.232;6.570;2022-10-15T09:44:58;41.90;;;18.90;;
75220;SDS011;63802;53.232;6.570;2022-10-15T09:47:28;44.63;;;19.23;;
75220;SDS011;63802;53.232;6.570;2022-10-15T09:49:56;42.33;;;19.17;;
75220;SDS011;63802;53.232;6.570;2022-10-15T09:52:24;38.35;;;18.70;;
75220;SDS011;63802;53.232;6.570;2022-10-15T09:57:50;45.78;;;18.55;;
75220;SDS011;63802;53.232;6.570;2022-10-15T10:00:19;43.15;;;18.80;;
75220;SDS011;63802;53.232;6.570;2022-10-15T10:02:44;43.70;;;19.15;;
75220;SDS011;63802;53.232;6.570;2022-10-15T10:05:32;47.22;;;19.60;;
75220;SDS011;63802;53.232;6.570;2022-10-15T10:08:07;50.88;;;20.55;;
75220;SDS011;63802;53.232;6.570;2022-10-15T10:10:36;54.55;;;21.33;;
75220;SDS011;63802;53.232;6.570;2022-10-15T10:13:02;52.88;;;22.13;;
75220;SDS011;63802;53.232;6.570;2022-10-15T10:15:33;52.90;;;20.92;;
75220;SDS011;63802;53.232;6.570;2022-10-15T10:18:01;57.63;;;20.85;;
75220;SDS011;63802;53.232;6.570;2022-10-15T10:20:31;52.95;;;21.42;;
75220;SDS011;63802;53.232;6.570;2022-10-15T10:23:01;60.92;;;22.85;;
75220;SDS011;63802;53.232;6.570;2022-10-15T10:25:44;52.65;;;19.83;;
75220;SDS011;63802;53.232;6.570;2022-10-15T10:31:17;46.55;;;19.67;;
75220;SDS011;63802;53.232;6.570;2022-10-15T10:33:29;49.30;;;18.58;;
75220;SDS011;63802;53.232;6.570;2022-10-15T10:36:00;50.08;;;18.77;;
75220;SDS011;63802;53.232;6.570;2022-10-15T10:38:28;44.70;;;17.77;;
75220;SDS011;63802;53.232;6.570;2022-10-15T10:41:00;41.83;;;15.68;;
75220;SDS011;63802;53.232;6.570;2022-10-15T10:43:29;34.78;;;15.27;;
75220;SDS011;63802;53.232;6.570;2022-10-15T10:46:01;42.78;;;15.77;;
75220;SDS011;63802;53.232;6.570;2022-10-15T10:48:42;34.40;;;13.93;;
75220;SDS011;63802;53.232;6.570;2022-10-15T10:53:55;33.25;;;13.80;;
75220;SDS011;63802;53.232;6.570;2022-10-15T11:01:45;27.80;;;11.45;;
75220;SDS011;63802;53.232;6.570;2022-10-15T11:04:12;26.65;;;12.68;;
75220;SDS011;63802;53.232;6.570;2022-10-15T11:17:53;26.45;;;12.32;;
75220;SDS011;63802;53.232;6.570;2022-10-15T11:20:27;26.65;;;11.48;;
75220;SDS011;63802;53.232;6.570;2022-10-15T11:28:52;23.75;;;9.13;;
75220;SDS011;63802;53.232;6.570;2022-10-15T11:31:28;25.63;;;11.27;;
75220;SDS011;63802;53.232;6.570;2022-10-15T11:36:58;21.75;;;9.43;;
75220;SDS011;63802;53.232;6.570;2022-10-15T11:40:03;23.52;;;9.95;;
75220;SDS011;63802;53.232;6.570;2022-10-15T11:42:57;19.83;;;9.77;;
75220;SDS011;63802;53.232;6.570;2022-10-15T11:45:32;20.88;;;9.43;;
75220;SDS011;63802;53.232;6.570;2022-10-15T11:48:01;21.10;;;9.73;;
75220;SDS011;63802;53.232;6.570;2022-10-15T11:50:34;24.05;;;9.77;;
75220;SDS011;63802;53.232;6.570;2022-10-15T11:53:29;22.73;;;8.85;;
75220;SDS011;63802;53.232;6.570;2022-10-15T11:56:12;19.95;;;9.05;;
75220;SDS011;63802;53.232;6.570;2022-10-15T11:58:44;21.73;;;9.68;;
75220;SDS011;63802;53.232;6.570;2022-10-15T12:03:40;20.80;;;9.25;;
75220;SDS011;63802;53.232;6.570;2022-10-15T12:06:32;22.05;;;10.45;;
75220;SDS011;63802;53.232;6.570;2022-10-15T12:09:04;20.08;;;9.90;;
75220;SDS011;63802;53.232;6.570;2022-10-15T12:16:57;19.63;;;9.23;;
75220;SDS011;63802;53.232;6.570;2022-10-15T12:19:54;20.00;;;9.60;;
75220;SDS011;63802;53.232;6.570;2022-10-15T12:24:58;19.42;;;10.32;;
75220;SDS011;63802;53.232;6.570;2022-10-15T12:27:25;21.63;;;10.48;;
75220;SDS011;63802;53.232;6.570;2022-10-15T12:32:47;20.65;;;9.85;;
75220;SDS011;63802;53.232;6.570;2022-10-15T12:37:39;21.48;;;10.20;;
75220;SDS011;63802;53.232;6.570;2022-10-15T12:40:28;19.92;;;9.95;;
75220;SDS011;63802;53.232;6.570;2022-10-15T12:42:59;21.90;;;10.05;;
75220;SDS011;63802;53.232;6.570;2022-10-15T12:45:39;18.63;;;9.70;;
75220;SDS011;63802;53.232;6.570;2022-10-15T12:50:40;18.00;;;9.60;;
75220;SDS011;63802;53.232;6.570;2022-10-15T13:08:45;22.95;;;11.43;;
75220;SDS011;63802;53.232;6.570;2022-10-15T13:11:26;24.92;;;11.13;;
75220;SDS011;63802;53.232;6.570;2022-10-15T13:13:58;27.08;;;11.02;;
75220;SDS011;63802;53.232;6.570;2022-10-15T13:16:26;26.83;;;11.95;;
75220;SDS011;63802;53.232;6.570;2022-10-15T13:18:52;25.75;;;12.25;;
75220;SDS011;63802;53.232;6.570;2022-10-15T13:21:20;26.38;;;12.48;;
75220;SDS011;63802;53.232;6.570;2022-10-15T13:23:46;27.35;;;11.80;;
75220;SDS011;63802;53.232;6.570;2022-10-15T13:26:20;30.27;;;12.93;;
75220;SDS011;63802;53.232;6.570;2022-10-15T13:28:51;28.75;;;12.70;;
75220;SDS011;63802;53.232;6.570;2022-10-15T13:33:51;25.40;;;11.38;;
75220;SDS011;63802;53.232;6.570;2022-10-15T13:36:24;26.60;;;12.13;;
75220;SDS011;63802;53.232;6.570;2022-10-15T13:38:53;31.77;;;12.48;;
75220;SDS011;63802;53.232;6.570;2022-10-15T13:41:24;26.90;;;12.52;;
75220;SDS011;63802;53.232;6.570;2022-10-15T13:43:52;25.45;;;10.82;;
75220;SDS011;63802;53.232;6.570;2022-10-15T13:46:23;28.38;;;12.50;;
75220;SDS011;63802;53.232;6.570;2022-10-15T13:48:54;24.73;;;11.77;;
75220;SDS011;63802;53.232;6.570;2022-10-15T13:51:22;28.58;;;13.02;;
75220;SDS011;63802;53.232;6.570;2022-10-15T13:53:49;26.83;;;11.85;;
75220;SDS011;63802;53.232;6.570;2022-10-15T13:56:30;24.80;;;11.52;;
75220;SDS011;63802;53.232;6.570;2022-10-15T13:58:59;29.90;;;12.27;;
75220;SDS011;63802;53.232;6.570;2022-10-15T14:01:27;24.90;;;10.85;;
75220;SDS011;63802;53.232;6.570;2022-10-15T14:03:54;27.17;;;12.13;;
75220;SDS011;63802;53.232;6.570;2022-10-15T14:06:24;26.33;;;12.23;;
75220;SDS011;63802;53.232;6.570;2022-10-15T14:09:19;27.17;;;10.95;;
75220;SDS011;63802;53.232;6.570;2022-10-15T14:11:44;24.92;;;11.32;;
75220;SDS011;63802;53.232;6.570;2022-10-15T14:14:28;27.95;;;11.60;;
75220;SDS011;63802;53.232;6.570;2022-10-15T14:17:26;25.20;;;11.45;;
75220;SDS011;63802;53.232;6.570;2022-10-15T14:22:25;25.20;;;11.15;;
75220;SDS011;63802;53.232;6.570;2022-10-15T14:24:52;26.10;;;11.10;;
75220;SDS011;63802;53.232;6.570;2022-10-15T14:27:19;25.75;;;10.82;;
75220;SDS011;63802;53.232;6.570;2022-10-15T14:29:57;23.45;;;9.98;;
75220;SDS011;63802;53.232;6.570;2022-10-15T14:35:24;22.98;;;10.15;;
75220;SDS011;63802;53.232;6.570;2022-10-15T14:38:01;28.33;;;10.88;;
75220;SDS011;63802;53.232;6.570;2022-10-15T14:40:29;20.25;;;9.50;;
75220;SDS011;63802;53.232;6.570;2022-10-15T14:45:41;22.60;;;9.52;;
75220;SDS011;63802;53.232;6.570;2022-10-15T14:48:26;18.70;;;8.80;;
75220;SDS011;63802;53.232;6.570;2022-10-15T14:53:23;19.50;;;8.18;;
75220;SDS011;63802;53.232;6.570;2022-10-15T14:55:56;19.08;;;8.13;;
75220;SDS011;63802;53.232;6.570;2022-10-15T14:58:25;15.15;;;7.53;;
75220;SDS011;63802;53.232;6.570;2022-10-15T15:01:00;18.17;;;8.25;;
75220;SDS011;63802;53.232;6.570;2022-10-15T15:03:30;18.90;;;8.25;;
75220;SDS011;63802;53.232;6.570;2022-10-15T15:06:03;19.27;;;7.88;;
75220;SDS011;63802;53.232;6.570;2022-10-15T15:08:29;19.88;;;7.55;;
75220;SDS011;63802;53.232;6.570;2022-10-15T15:10:55;16.98;;;7.25;;
75220;SDS011;63802;53.232;6.570;2022-10-15T15:13:24;16.67;;;7.93;;
75220;SDS011;63802;53.232;6.570;2022-10-15T15:15:51;20.13;;;7.88;;
75220;SDS011;63802;53.232;6.570;2022-10-15T15:18:17;19.40;;;7.50;;
75220;SDS011;63802;53.232;6.570;2022-10-15T15:20:43;18.50;;;8.13;;
75220;SDS011;63802;53.232;6.570;2022-10-15T15:23:13;18.77;;;7.95;;
75220;SDS011;63802;53.232;6.570;2022-10-15T15:25:51;16.40;;;7.15;;
75220;SDS011;63802;53.232;6.570;2022-10-15T15:28:19;13.77;;;6.45;;
75220;SDS011;63802;53.232;6.570;2022-10-15T15:30:45;13.63;;;6.72;;
75220;SDS011;63802;53.232;6.570;2022-10-15T15:33:19;11.85;;;5.88;;
75220;SDS011;63802;53.232;6.570;2022-10-15T15:35:51;12.95;;;5.18;;
75220;SDS011;63802;53.232;6.570;2022-10-15T15:38:20;15.40;;;6.72;;
75220;SDS011;63802;53.232;6.570;2022-10-15T15:40:48;15.13;;;5.95;;
75220;SDS011;63802;53.232;6.570;2022-10-15T15:43:15;12.75;;;5.90;;
75220;SDS011;63802;53.232;6.570;2022-10-15T15:45:42;15.30;;;6.07;;
75220;SDS011;63802;53.232;6.570;2022-10-15T15:48:08;13.07;;;6.00;;
75220;SDS011;63802;53.232;6.570;2022-10-15T15:50:34;12.27;;;6.03;;
75220;SDS011;63802;53.232;6.570;2022-10-15T15:53:01;11.30;;;5.15;;
75220;SDS011;63802;53.232;6.570;2022-10-15T15:55:27;12.55;;;5.55;;
75220;SDS011;63802;53.232;6.570;2022-10-15T15:57:52;10.40;;;4.88;;
75220;SDS011;63802;53.232;6.570;2022-10-15T16:00:18;11.10;;;5.15;;
75220;SDS011;63802;53.232;6.570;2022-10-15T16:02:44;11.20;;;5.45;;
75220;SDS011;63802;53.232;6.570;2022-10-15T16:05:10;12.18;;;5.72;;
75220;SDS011;63802;53.232;6.570;2022-10-15T16:07:38;11.88;;;5.45;;
75220;SDS011;63802;53.232;6.570;2022-10-15T16:10:04;9.88;;;4.65;;
75220;SDS011;63802;53.232;6.570;2022-10-15T16:12:33;11.15;;;5.45;;
75220;SDS011;63802;53.232;6.570;2022-10-15T16:14:58;12.43;;;5.18;;
75220;SDS011;63802;53.232;6.570;2022-10-15T16:17:24;10.00;;;4.80;;
75220;SDS011;63802;53.232;6.570;2022-10-15T16:19:50;10.65;;;4.90;;
75220;SDS011;63802;53.232;6.570;2022-10-15T16:22:16;10.57;;;4.55;;
75220;SDS011;63802;53.232;6.570;2022-10-15T16:24:41;9.13;;;4.93;;
75220;SDS011;63802;53.232;6.570;2022-10-15T16:27:06;11.15;;;4.53;;
75220;SDS011;63802;53.232;6.570;2022-10-15T16:29:32;10.95;;;4.60;;
75220;SDS011;63802;53.232;6.570;2022-10-15T16:31:58;10.55;;;4.65;;
75220;SDS011;63802;53.232;6.570;2022-10-15T16:34:23;9.70;;;3.67;;
75220;SDS011;63802;53.232;6.570;2022-10-15T16:36:49;8.05;;;3.67;;
75220;SDS011;63802;53.232;6.570;2022-10-15T16:39:14;9.35;;;3.90;;
75220;SDS011;63802;53.232;6.570;2022-10-15T16:41:40;8.88;;;4.63;;
75220;SDS011;63802;53.232;6.570;2022-10-15T16:44:05;8.57;;;4.50;;